Alderpoint, CA

3:42 AM PDT on July 03, 2015 (GMT -0700)
Zenia | | Change Station
CLOSE
Current Station
Personal Weather Station
Location: Zenia, CA
Elevation: 1929 ft
Nearby Weather Stations

Elev 1929 ft 40.20 °N, 123.51 °W | Updated 18 seconds ago

Mostly Cloudy
Mostly Cloudy
76.3 °F
Feels Like 78 °F
N
0.0
Wind Variable Wind from North
Gusts 0.0 mph

Today
High -- | Low -- °F
--% Chance of Precip.
Yesterday
High -- | Low -- °F
Precip. -- in
5:49 AM 8:47 PM
Full, 98% visible
Pressure 29.94 in
Visibility 0.5 miles
Clouds Overcast 200 ft
Heat Index 78 °F
Dew Point 57 °F
Humidity 52%
Rainfall 0.00 in
Snow Depth Not available.
UV 0.0 out of 12
Pollen 6.20 out of 12
Air Quality Not available.
Flu Activity Not available.
METAR KFOT 031035Z AUTO 00000KT 1/2SM OVC002 12/12 A2994 RMK AO1

More Conditions Fewer Conditions

Pressure 29.94 in
Visibility 0.5 miles
Clouds Overcast 200 ft
Heat Index 78 °F
Dew Point 57 °F
Humidity 52%
Rainfall 0.00 in
Snow Depth Not available.
UV 0.0 out of 12
Pollen 6.20 out of 12
Air Quality Not available.
Flu Activity Not available.
METAR KFOT 031035Z AUTO 00000KT 1/2SM OVC002 12/12 A2994 RMK AO1

More Conditions Fewer Conditions

10-Day Weather Forecast

×

Almanac

Astronomy

Jul. 03, 2015 Rise Set
Actual Time
Civil Twilight
Nautical Twilight
Astronomical Twilight
Moon
Length of Visible Light
Length of Day
Tomorrow will be .
, % of the Moon is Illuminated

Today's Extremes

State Highs State Lows

Community

WunderPhotos

Upload Photos

1,834,648 photos uploaded!

WunderBlogs® & News

Nearby

Air Quality

  Air Quality AQ Index Pollutant
Not available.

Snow Depth

Station Depth Elevation

Earthquake Activity

City Distance Mag. Time & Date
Minimum magnitude displayed is 2.5.

Coastal Water Temperatures

Place Temperature

Stations

Nearby Weather Stations

Station Location Temp. Windchill Dew Point Humidity Wind Precip. Elev Updated Type